Aranda — OIRY — position and weather

sailwx.info

Track history (hours):
 
Tides and Currents Weather Stations Pressure Air Temp Water Temp Dewpoint Dewpoint Depression Visibility Wind Speed Wind Dir Waves Ship Positions

Oceanographic research ship Aranda (Finland)

Detailed information on ship capabilities available from University of Delaware's Ocean Information Center and ARCUS's ALIAS (Arctic Logistics Information and Support) project.

Last reported at 2017-Jan-23 01:32 UTC. Time now 2017-Jan-23 16:52 UTC.
Position N 59°47' E 023°46'.

Length 60 m; draft 4.6 m.

Type: Other ship. MMSI: 230145000.

Date/timePositionNaut miles runAvg speedWind from/ knotsBaromVisibWave heightAir tempDewpointWater temp
2017-Jan-23 01:32N 59°47' E 023°46'1312.5
2017-Jan-23 00:30N 59°42' E 023°22'5 2.7
2017-Jan-22 22:33N 59°47' E 023°16'138 3.1
2017-Jan-21 01:16N 60°12' E 027°47'912.3
2017-Jan-21 00:33N 60°10' E 028°04'1212.1
2017-Jan-20 23:33N 59°58' E 028°09'1212.3
2017-Jan-20 22:34N 59°46' E 028°15'7 7.3
2017-Jan-20 21:33N 59°41' E 028°25'0 0.3
2017-Jan-20 20:25N 59°41' E 028°26'0 0.0
2017-Jan-20 19:25N 59°41' E 028°26'0 0.0
2017-Jan-20 18:33N 59°41' E 028°26'4 3.6
2017-Jan-20 17:34N 59°42' E 028°19'1111.0
2017-Jan-20 16:33N 59°52' E 028°10'1312.6
2017-Jan-20 15:33N 60°05' E 028°06'30 7.5
2017-Jan-20 11:33N 59°44' E 027°23'0 0.0
2017-Jan-20 10:33N 59°44' E 027°23'9 9.3
2017-Jan-20 09:33N 59°53' E 027°19'9 8.1
2017-Jan-20 08:27N 59°57' E 027°03'24 4.0
2017-Jan-20 02:33N 60°08' E 027°44'19 2.4
2017-Jan-19 18:31N 60°06' E 028°22'1010.6
2017-Jan-19 17:33N 60°05' E 028°42'0 0.1
2017-Jan-19 16:16N 60°05' E 028°42'4 5.7
2017-Jan-19 15:33N 60°01' E 028°37'9 9.3
2017-Jan-19 14:33N 59°53' E 028°30'4 3.7
2017-Jan-19 13:33N 59°50' E 028°26'7 7.0
2017-Jan-19 12:33N 59°43' E 028°24'3 2.5
2017-Jan-19 11:32N 59°41' E 028°26'0 0.0
2017-Jan-19 10:32N 59°41' E 028°26'0 0.0
2017-Jan-19 09:23N 59°41' E 028°26'0 0.0
2017-Jan-19 08:23N 59°41' E 028°26'0 0.0
2017-Jan-19 07:26N 59°41' E 028°26'1 0.9
2017-Jan-19 06:33N 59°41' E 028°24'6 5.9
2017-Jan-19 05:33N 59°45' E 028°15'7 6.6
2017-Jan-19 04:33N 59°51' E 028°11'7 6.9
2017-Jan-19 03:33N 59°58' E 028°08'7 6.9
2017-Jan-19 02:33N 60°05' E 028°06'8 6.0
2017-Jan-19 01:18N 60°10' E 027°55'23 4.8
2017-Jan-18 20:29N 60°14' E 027°09'1212.6
2017-Jan-18 19:33N 60°09' E 026°47'  
2017-Jan-15 18:33N 59°52' E 024°10'1211.8
2017-Jan-15 17:33N 59°45' E 023°51'1312.7
2017-Jan-15 16:34N 59°41' E 023°27'366 8.8
2017-Jan-13 23:11N 55°38' E 014°55'2 2.9
2017-Jan-13 22:33N 55°37' E 014°52'8 8.3
2017-Jan-13 21:33N 55°30' E 014°45'1312.4
2017-Jan-13 20:32N 55°20' E 014°32'1212.2
2017-Jan-13 19:33N 55°11' E 014°17'1212.1
2017-Jan-13 18:33N 55°11' E 013°56'3012.4
2017-Jan-13 16:09N 55°13' E 013°04'812.8
2017-Jan-13 15:32N 55°15' E 012°51'10 9.9
2017-Jan-13 14:33N 55°22' E 012°39'1211.7
2017-Jan-13 13:33N 55°34' E 012°42'1212.0
2017-Jan-13 12:33N 55°46' E 012°41'1211.8
2017-Jan-13 11:33N 55°57' E 012°37'1110.7
2017-Jan-13 10:33N 56°07' E 012°30'  
Track history (hours):
 
Tides and Currents Weather Stations Pressure Air Temp Water Temp Dewpoint Dewpoint Depression Visibility Wind Speed Wind Dir Waves Ship Positions

Oceanographic research ship Aranda (Finland)

Detailed information on ship capabilities available from University of Delaware's Ocean Information Center and ARCUS's ALIAS (Arctic Logistics Information and Support) project.

Last reported at 2017-Jan-23 01:32 UTC. Time now 2017-Jan-23 16:52 UTC.
Position N 59°47' E 023°46'.

Length 60 m; draft 4.6 m.

Type: Other ship. MMSI: 230145000.

Date/timePositionNaut miles runAvg speedWind from/ knotsBaromVisibWave heightAir tempDewpointWater temp
2017-Jan-23 01:32N 59°47' E 023°46'1312.5
2017-Jan-23 00:30N 59°42' E 023°22'5 2.7
2017-Jan-22 22:33N 59°47' E 023°16'138 3.1
2017-Jan-21 01:16N 60°12' E 027°47'912.3
2017-Jan-21 00:33N 60°10' E 028°04'1212.1
2017-Jan-20 23:33N 59°58' E 028°09'1212.3
2017-Jan-20 22:34N 59°46' E 028°15'7 7.3
2017-Jan-20 21:33N 59°41' E 028°25'0 0.3
2017-Jan-20 20:25N 59°41' E 028°26'0 0.0
2017-Jan-20 19:25N 59°41' E 028°26'0 0.0
2017-Jan-20 18:33N 59°41' E 028°26'4 3.6
2017-Jan-20 17:34N 59°42' E 028°19'1111.0
2017-Jan-20 16:33N 59°52' E 028°10'1312.6
2017-Jan-20 15:33N 60°05' E 028°06'30 7.5
2017-Jan-20 11:33N 59°44' E 027°23'0 0.0
2017-Jan-20 10:33N 59°44' E 027°23'9 9.3
2017-Jan-20 09:33N 59°53' E 027°19'9 8.1
2017-Jan-20 08:27N 59°57' E 027°03'24 4.0
2017-Jan-20 02:33N 60°08' E 027°44'19 2.4
2017-Jan-19 18:31N 60°06' E 028°22'1010.6
2017-Jan-19 17:33N 60°05' E 028°42'0 0.1
2017-Jan-19 16:16N 60°05' E 028°42'4 5.7
2017-Jan-19 15:33N 60°01' E 028°37'9 9.3
2017-Jan-19 14:33N 59°53' E 028°30'4 3.7
2017-Jan-19 13:33N 59°50' E 028°26'7 7.0
2017-Jan-19 12:33N 59°43' E 028°24'3 2.5
2017-Jan-19 11:32N 59°41' E 028°26'0 0.0
2017-Jan-19 10:32N 59°41' E 028°26'0 0.0
2017-Jan-19 09:23N 59°41' E 028°26'0 0.0
2017-Jan-19 08:23N 59°41' E 028°26'0 0.0
2017-Jan-19 07:26N 59°41' E 028°26'1 0.9
2017-Jan-19 06:33N 59°41' E 028°24'6 5.9
2017-Jan-19 05:33N 59°45' E 028°15'7 6.6
2017-Jan-19 04:33N 59°51' E 028°11'7 6.9
2017-Jan-19 03:33N 59°58' E 028°08'7 6.9
2017-Jan-19 02:33N 60°05' E 028°06'8 6.0
2017-Jan-19 01:18N 60°10' E 027°55'23 4.8
2017-Jan-18 20:29N 60°14' E 027°09'1212.6
2017-Jan-18 19:33N 60°09' E 026°47'  
2017-Jan-15 18:33N 59°52' E 024°10'1211.8
2017-Jan-15 17:33N 59°45' E 023°51'1312.7
2017-Jan-15 16:34N 59°41' E 023°27'366 8.8
2017-Jan-13 23:11N 55°38' E 014°55'2 2.9
2017-Jan-13 22:33N 55°37' E 014°52'8 8.3
2017-Jan-13 21:33N 55°30' E 014°45'1312.4
2017-Jan-13 20:32N 55°20' E 014°32'1212.2
2017-Jan-13 19:33N 55°11' E 014°17'1212.1
2017-Jan-13 18:33N 55°11' E 013°56'3012.4
2017-Jan-13 16:09N 55°13' E 013°04'812.8
2017-Jan-13 15:32N 55°15' E 012°51'10 9.9
2017-Jan-13 14:33N 55°22' E 012°39'1211.7
2017-Jan-13 13:33N 55°34' E 012°42'1212.0
2017-Jan-13 12:33N 55°46' E 012°41'1211.8
2017-Jan-13 11:33N 55°57' E 012°37'1110.7
2017-Jan-13 10:33N 56°07' E 012°30'  

Dump ship's entire track history